Time;durP1;ratioP1;P1;durP2;ratioP2;P2;SDS_P1;SDS_P2;PMS_P1;PMS_P2;Temp;Humidity;BMP_temperature;BMP_pressure;BME280_temperature;BME280_humidity;BME280_pressure;Samples;Min_cycle;Max_cycle;Signal;HPM_P1;HPM_P2
2023/08/17 00:00:03;;;;;;;2.80;1.10;;;19.80;94.40;;;;;;5034224;28;20926;-79
2023/08/17 00:02:28;;;;;;;3.75;1.20;;;19.80;94.30;;;;;;5033592;28;20060;-79
2023/08/17 00:04:54;;;;;;;4.80;1.23;;;19.80;94.60;;;;;;5033854;28;20041;-78
2023/08/17 00:07:20;;;;;;;5.95;1.30;;;19.80;94.60;;;;;;5032592;28;20471;-80
2023/08/17 00:09:45;;;;;;;4.07;1.23;;;19.70;94.80;;;;;;5049210;28;20124;-79
2023/08/17 00:12:11;;;;;;;3.83;1.30;;;19.60;94.60;;;;;;5034173;28;20079;-79
2023/08/17 00:14:36;;;;;;;5.00;1.10;;;19.60;94.80;;;;;;5033732;28;20094;-79
2023/08/17 00:17:02;;;;;;;4.68;1.23;;;19.60;94.90;;;;;;5049248;28;20049;-79
2023/08/17 00:19:28;;;;;;;3.53;0.88;;;19.50;95.10;;;;;;5048911;28;20045;-79
2023/08/17 00:21:55;;;;;;;3.05;1.00;;;19.60;94.90;;;;;;5033716;28;20045;-79
2023/08/17 00:24:21;;;;;;;4.10;1.20;;;19.50;94.90;;;;;;5034008;28;20042;-80
2023/08/17 00:26:46;;;;;;;4.65;1.30;;;19.40;94.80;;;;;;5037683;28;20119;-79
2023/08/17 00:29:12;;;;;;;4.93;1.17;;;19.40;94.90;;;;;;5033563;28;20041;-80
2023/08/17 00:31:37;;;;;;;3.38;1.00;;;19.40;94.90;;;;;;5034328;28;20045;-78
2023/08/17 00:34:03;;;;;;;4.97;1.40;;;19.30;95.00;;;;;;5033430;28;20045;-81
2023/08/17 00:36:29;;;;;;;4.22;1.30;;;19.30;94.80;;;;;;5046801;28;20287;-80
2023/08/17 00:38:54;;;;;;;3.58;1.20;;;19.30;94.70;;;;;;5030625;28;20044;-80
2023/08/17 00:41:20;;;;;;;4.80;1.30;;;19.30;94.90;;;;;;5034453;28;20042;-80
2023/08/17 00:43:45;;;;;;;2.90;1.02;;;19.20;94.80;;;;;;5033271;28;20052;-80
2023/08/17 00:46:12;;;;;;;3.38;1.13;;;19.20;95.10;;;;;;5032878;28;20111;-80
2023/08/17 00:48:41;;;;;;;4.97;1.55;;;19.20;95.50;;;;;;5032095;28;20085;-80
2023/08/17 00:51:07;;;;;;;3.70;1.17;;;19.20;95.00;;;;;;5031994;28;20434;-80
2023/08/17 00:53:33;;;;;;;4.95;1.20;;;19.10;95.20;;;;;;5033262;28;20041;-80
2023/08/17 00:56:00;;;;;;;4.68;1.10;;;19.10;95.20;;;;;;5033058;28;20052;-80
2023/08/17 00:58:27;;;;;;;3.78;1.27;;;19.10;95.30;;;;;;5036615;28;20050;-80
2023/08/17 01:00:52;;;;;;;4.68;1.40;;;19.10;95.30;;;;;;5031727;28;20045;-79
2023/08/17 01:03:20;;;;;;;4.80;1.25;;;19.10;95.30;;;;;;5015473;28;20064;-80
2023/08/17 01:05:46;;;;;;;4.13;1.17;;;19.10;95.10;;;;;;5035464;28;20068;-80
2023/08/17 01:08:12;;;;;;;3.50;1.10;;;19.10;95.10;;;;;;5034113;28;20049;-80
2023/08/17 01:10:49;;;;;;;3.58;1.20;;;19.10;95.10;;;;;;5033484;28;20447;-80
2023/08/17 01:13:32;;;;;;;4.38;1.08;;;19.10;95.20;;;;;;5032199;28;20056;-80
2023/08/17 01:15:59;;;;;;;;;;;19.10;95.30;;;;;;5038744;28;20047;-79
2023/08/17 01:18:35;;;;;;;2.45;0.90;;;18.90;94.80;;;;;;5033056;28;19995;-80
2023/08/17 01:21:05;;;;;;;5.38;1.30;;;19.00;95.70;;;;;;5032866;28;20041;-81
2023/08/17 01:23:31;;;;;;;4.30;1.17;;;19.00;95.20;;;;;;5032851;28;20045;-80
2023/08/17 01:25:57;;;;;;;3.47;0.98;;;18.90;95.30;;;;;;5031491;28;20476;-79
2023/08/17 01:28:23;;;;;;;4.80;1.20;;;18.90;95.40;;;;;;5030795;28;20046;-80
2023/08/17 01:31:04;;;;;;;4.22;1.10;;;18.90;95.40;;;;;;5033531;28;20037;-80
2023/08/17 01:33:54;;;;;;;4.10;1.05;;;18.90;95.20;;;;;;5032361;28;20060;-79
2023/08/17 01:36:24;;;;;;;4.22;1.13;;;18.90;94.90;;;;;;5032253;28;20071;-80
2023/08/17 01:38:52;;;;;;;2.88;1.02;;;18.80;95.00;;;;;;5031043;28;20064;-80
2023/08/17 01:41:19;;;;;;;4.80;1.40;;;18.80;95.00;;;;;;5032330;28;20049;-80
2023/08/17 01:43:47;;;;;;;3.60;1.25;;;18.80;95.20;;;;;;5032501;28;20049;-80
2023/08/17 01:46:17;;;;;;;4.95;1.33;;;18.80;95.00;;;;;;5032003;28;20050;-80
2023/08/17 01:48:44;;;;;;;4.28;1.10;;;18.70;94.90;;;;;;5032332;28;20045;-80
2023/08/17 01:51:11;;;;;;;4.22;1.40;;;18.70;94.90;;;;;;5030731;28;20045;-79
2023/08/17 01:53:37;;;;;;;4.35;1.08;;;18.60;94.70;;;;;;5032049;28;20045;-80
2023/08/17 01:56:03;;;;;;;2.92;1.10;;;18.60;94.70;;;;;;5032088;28;20053;-80
2023/08/17 01:58:28;;;;;;;3.38;1.00;;;18.50;94.80;;;;;;5032314;28;20132;-80
2023/08/17 02:00:54;;;;;;;3.70;0.90;;;18.50;94.80;;;;;;5031914;28;20050;-79
2023/08/17 02:03:20;;;;;;;4.00;1.00;;;18.40;95.00;;;;;;5032672;28;20046;-80
2023/08/17 02:05:46;;;;;;;4.20;1.30;;;18.40;95.10;;;;;;5031924;28;20395;-80
2023/08/17 02:08:16;;;;;;;2.95;0.98;;;18.30;95.50;;;;;;5032025;28;20048;-79
2023/08/17 02:10:41;;;;;;;5.05;1.35;;;18.40;95.20;;;;;;5031485;28;20053;-79
2023/08/17 02:13:07;;;;;;;4.45;1.17;;;18.30;95.60;;;;;;5031219;28;20048;-80
2023/08/17 02:15:39;;;;;;;3.55;1.15;;;18.30;95.50;;;;;;5031775;28;20049;-80
2023/08/17 02:18:04;;;;;;;2.80;0.90;;;18.30;95.50;;;;;;5030782;28;20064;-80
2023/08/17 02:20:30;;;;;;;4.28;1.40;;;18.30;95.70;;;;;;5030651;28;20128;-80
2023/08/17 02:22:56;;;;;;;3.05;1.02;;;18.20;95.90;;;;;;5031939;28;20076;-80
2023/08/17 02:25:21;;;;;;;3.25;1.10;;;18.30;96.00;;;;;;5030176;28;20037;-80
2023/08/17 02:27:47;;;;;;;4.75;1.30;;;18.20;96.00;;;;;;5031987;28;20103;-79
2023/08/17 02:30:13;;;;;;;3.15;1.00;;;18.20;95.80;;;;;;5032096;28;20116;-80
2023/08/17 02:32:39;;;;;;;4.35;1.10;;;18.10;95.90;;;;;;5046808;28;20139;-80
2023/08/17 02:35:06;;;;;;;3.22;1.23;;;18.10;96.00;;;;;;5051259;28;20044;-80
2023/08/17 02:37:31;;;;;;;3.53;1.20;;;18.10;95.70;;;;;;5033307;28;20056;-80
2023/08/17 02:39:57;;;;;;;2.70;0.95;;;18.10;95.80;;;;;;5035682;28;20041;-80
2023/08/17 02:42:22;;;;;;;4.03;1.20;;;18.10;95.90;;;;;;5035424;28;20395;-80
2023/08/17 02:44:48;;;;;;;4.25;1.23;;;18.00;95.90;;;;;;5036640;28;20049;-80
2023/08/17 02:47:14;;;;;;;3.83;1.13;;;18.00;95.90;;;;;;5035343;28;20041;-80
2023/08/17 02:49:39;;;;;;;3.17;1.05;;;18.00;95.80;;;;;;5035822;28;20139;-80
2023/08/17 02:52:05;;;;;;;3.75;1.20;;;18.00;95.80;;;;;;5035691;28;20052;-80
2023/08/17 02:54:31;;;;;;;4.30;1.27;;;18.00;96.10;;;;;;5035763;28;20042;-80
2023/08/17 02:56:57;;;;;;;5.28;1.30;;;17.90;95.90;;;;;;5035784;28;20167;-79
2023/08/17 02:59:23;;;;;;;3.10;1.10;;;17.90;96.20;;;;;;5035793;28;20427;-80
2023/08/17 03:01:49;;;;;;;3.97;1.30;;;17.90;96.00;;;;;;5035194;28;20045;-80
2023/08/17 03:04:14;;;;;;;4.60;1.38;;;17.90;95.90;;;;;;5034423;28;20049;-80
2023/08/17 03:06:40;;;;;;;5.70;1.40;;;17.90;95.90;;;;;;5034915;28;20047;-79
2023/08/17 03:09:05;;;;;;;5.10;1.20;;;17.80;95.70;;;;;;5035314;28;20049;-80
2023/08/17 03:11:31;;;;;;;4.53;1.40;;;17.80;95.70;;;;;;5048630;28;20047;-78
2023/08/17 03:14:02;;;;;;;4.53;1.33;;;17.80;95.90;;;;;;5035604;28;20057;-80
2023/08/17 03:16:30;;;;;;;4.28;1.52;;;17.80;95.70;;;;;;5035240;28;20048;-80
2023/08/17 03:18:56;;;;;;;4.47;1.15;;;17.80;96.10;;;;;;5034036;28;20045;-80
2023/08/17 03:21:22;;;;;;;6.22;1.60;;;17.70;96.20;;;;;;5050971;28;20037;-79
2023/08/17 03:23:49;;;;;;;5.75;1.35;;;17.70;96.10;;;;;;5041506;28;20127;-80
2023/08/17 03:26:15;;;;;;;5.63;1.35;;;17.70;96.00;;;;;;5047468;28;20057;-80
2023/08/17 03:28:41;;;;;;;4.50;1.23;;;17.60;95.70;;;;;;5035107;28;20056;-80
2023/08/17 03:31:08;;;;;;;3.33;1.20;;;17.60;96.00;;;;;;5035325;28;20395;-80
2023/08/17 03:33:35;;;;;;;3.53;1.20;;;17.60;96.20;;;;;;5034494;28;20049;-80
2023/08/17 03:36:06;;;;;;;3.47;1.20;;;17.60;96.20;;;;;;5035312;28;20037;-80
2023/08/17 03:38:35;;;;;;;3.63;1.38;;;17.60;96.40;;;;;;5032199;28;20040;-80
2023/08/17 03:41:01;;;;;;;2.80;1.13;;;17.60;96.20;;;;;;5035003;28;20488;-80
2023/08/17 03:43:27;;;;;;;4.18;1.33;;;17.60;96.30;;;;;;5034592;28;20055;-80
2023/08/17 03:45:52;;;;;;;5.57;1.35;;;17.50;96.30;;;;;;5032850;28;20049;-80
2023/08/17 03:48:18;;;;;;;4.25;1.30;;;17.50;96.30;;;;;;5034011;28;20042;-80
2023/08/17 03:50:44;;;;;;;4.63;1.42;;;17.50;96.30;;;;;;5049220;28;20513;-80
2023/08/17 03:53:12;;;;;;;6.05;1.42;;;17.50;96.00;;;;;;5049912;28;20041;-80
2023/08/17 03:55:38;;;;;;;4.75;1.30;;;17.40;96.10;;;;;;5034852;28;20095;-80
2023/08/17 03:58:04;;;;;;;3.85;1.50;;;17.40;96.30;;;;;;5034151;28;20049;-80
2023/08/17 04:00:29;;;;;;;4.40;1.48;;;17.40;96.10;;;;;;5033961;28;20049;-80
2023/08/17 04:02:55;;;;;;;5.15;1.50;;;17.40;96.00;;;;;;5050125;28;20042;-80
2023/08/17 04:05:20;;;;;;;3.63;1.40;;;17.40;96.00;;;;;;5038003;28;20055;-80
2023/08/17 04:07:47;;;;;;;7.05;1.48;;;17.30;96.10;;;;;;5050792;28;20038;-80
2023/08/17 04:10:13;;;;;;;3.85;1.35;;;17.30;96.30;;;;;;5034021;28;20051;-80
2023/08/17 04:12:41;;;;;;;6.05;1.60;;;17.30;96.20;;;;;;5034560;28;20132;-80
2023/08/17 04:15:08;;;;;;;5.15;1.70;;;17.20;96.20;;;;;;5032951;28;20041;-79
2023/08/17 04:17:34;;;;;;;4.55;1.30;;;17.20;96.30;;;;;;5034222;28;20124;-80
2023/08/17 04:19:59;;;;;;;5.38;1.42;;;17.20;96.30;;;;;;5034236;28;20132;-80
2023/08/17 04:22:25;;;;;;;4.22;1.77;;;17.20;96.40;;;;;;5034213;28;20071;-80
2023/08/17 04:24:53;;;;;;;3.45;1.40;;;17.20;96.20;;;;;;5032998;28;20041;-80
2023/08/17 04:27:22;;;;;;;4.93;1.30;;;17.20;96.20;;;;;;5033605;28;20041;-80
2023/08/17 04:29:48;;;;;;;4.00;1.50;;;17.20;96.20;;;;;;5033422;28;20372;-80
2023/08/17 04:32:16;;;;;;;5.70;1.35;;;17.10;96.50;;;;;;5034087;28;20192;-80
2023/08/17 04:34:43;;;;;;;2.65;1.20;;;17.10;96.50;;;;;;5034222;28;20119;-79
2023/08/17 04:37:09;;;;;;;4.28;1.48;;;17.10;96.50;;;;;;5032697;28;20553;-80
2023/08/17 04:39:34;;;;;;;4.25;1.40;;;17.10;96.60;;;;;;5016145;28;20381;-80
2023/08/17 04:42:00;;;;;;;3.72;1.10;;;17.10;96.50;;;;;;5032632;28;20052;-80
2023/08/17 04:44:25;;;;;;;2.95;1.30;;;17.10;96.50;;;;;;5032698;28;20077;-80
2023/08/17 04:46:51;;;;;;;3.72;1.40;;;17.10;96.50;;;;;;5033403;28;20041;-80
2023/08/17 04:49:19;;;;;;;5.15;1.42;;;17.00;96.60;;;;;;5050549;28;20036;-80
2023/08/17 04:51:45;;;;;;;4.53;1.45;;;17.00;96.60;;;;;;5035827;28;20502;-80
2023/08/17 04:54:13;;;;;;;6.75;1.60;;;17.00;96.70;;;;;;5032679;28;20045;-80
2023/08/17 04:56:39;;;;;;;4.40;1.48;;;17.00;96.60;;;;;;5046665;28;20123;-80
2023/08/17 04:59:08;;;;;;;5.32;1.55;;;17.00;96.80;;;;;;5038147;28;20452;-81
2023/08/17 05:01:33;;;;;;;4.07;1.60;;;17.00;96.70;;;;;;5033431;28;20045;-80
2023/08/17 05:03:59;;;;;;;5.45;1.58;;;17.00;96.70;;;;;;5033628;28;20057;-80
2023/08/17 05:06:24;;;;;;;6.40;1.65;;;17.00;96.50;;;;;;5033585;28;20046;-80
2023/08/17 05:08:53;;;;;;;4.88;1.52;;;17.00;96.50;;;;;;5033487;28;20053;-80
2023/08/17 05:11:18;;;;;;;3.55;1.17;;;17.00;96.50;;;;;;5034336;28;20087;-80
2023/08/17 05:13:44;;;;;;;4.82;1.50;;;17.00;96.70;;;;;;5032927;28;20042;-80
2023/08/17 05:16:12;;;;;;;3.45;1.30;;;17.00;96.80;;;;;;5032418;28;20403;-80
2023/08/17 05:18:38;;;;;;;3.30;1.20;;;17.00;96.90;;;;;;5031761;28;20386;-80
2023/08/17 05:21:04;;;;;;;4.97;1.45;;;16.90;96.70;;;;;;5032722;28;20048;-80
2023/08/17 05:23:29;;;;;;;8.27;1.60;;;17.00;96.60;;;;;;5032974;28;20049;-80
2023/08/17 05:25:55;;;;;;;4.55;1.30;;;17.00;96.70;;;;;;5032847;28;20052;-80
2023/08/17 05:28:20;;;;;;;4.55;1.30;;;17.00;96.60;;;;;;5033177;28;20041;-80
2023/08/17 05:30:46;;;;;;;2.38;1.00;;;17.00;96.70;;;;;;5032678;28;20407;-80
2023/08/17 05:33:12;;;;;;;5.60;1.38;;;16.90;96.60;;;;;;5033336;28;20399;-80
2023/08/17 05:35:38;;;;;;;5.15;1.40;;;17.00;96.80;;;;;;5032866;28;20051;-79
2023/08/17 05:38:04;;;;;;;4.60;1.52;;;16.90;97.00;;;;;;5033144;28;20183;-80
2023/08/17 05:40:30;;;;;;;3.47;1.33;;;17.00;97.00;;;;;;5032736;28;20033;-80
2023/08/17 05:42:56;;;;;;;2.78;1.15;;;17.00;96.80;;;;;;5032595;28;20056;-79
2023/08/17 05:45:22;;;;;;;4.90;1.38;;;17.00;96.90;;;;;;5047253;28;20140;-80
2023/08/17 05:47:47;;;;;;;6.75;1.40;;;17.00;96.80;;;;;;5032923;28;20038;-80
2023/08/17 05:50:13;;;;;;;4.18;1.20;;;17.00;96.70;;;;;;5035141;28;20041;-80
2023/08/17 05:52:40;;;;;;;2.85;1.20;;;17.00;96.70;;;;;;5032650;28;20103;-80
2023/08/17 05:55:06;;;;;;;6.15;1.85;;;17.00;97.00;;;;;;5032539;28;20049;-79
2023/08/17 05:57:32;;;;;;;3.40;1.20;;;17.00;97.10;;;;;;5027337;28;20046;-79
2023/08/17 05:59:58;;;;;;;7.45;1.75;;;17.10;97.20;;;;;;5033353;28;20115;-80
2023/08/17 06:02:23;;;;;;;4.53;1.48;;;17.10;97.00;;;;;;5032305;28;20045;-80
2023/08/17 06:04:49;;;;;;;4.55;1.42;;;17.10;97.00;;;;;;5032813;28;20052;-80
2023/08/17 06:07:15;;;;;;;5.25;1.50;;;17.10;97.10;;;;;;5047878;28;20053;-80
2023/08/17 06:09:40;;;;;;;4.38;1.30;;;17.10;97.00;;;;;;5032781;28;20053;-79
2023/08/17 06:12:06;;;;;;;6.18;1.33;;;17.10;97.10;;;;;;5032028;28;20052;-80
2023/08/17 06:14:34;;;;;;;3.88;1.30;;;17.10;97.10;;;;;;5051757;28;20042;-80
2023/08/17 06:16:59;;;;;;;5.57;1.35;;;17.20;97.10;;;;;;5036338;28;20553;-80
2023/08/17 06:19:25;;;;;;;6.00;1.40;;;17.10;97.10;;;;;;5036093;28;20042;-79
2023/08/17 06:21:51;;;;;;;3.78;1.10;;;17.20;96.90;;;;;;5034473;28;20496;-80
2023/08/17 06:24:18;;;;;;;5.10;1.30;;;17.20;97.00;;;;;;5037643;28;20079;-80
2023/08/17 06:26:44;;;;;;;3.88;1.08;;;17.20;97.00;;;;;;5038416;28;20440;-79
2023/08/17 06:29:09;;;;;;;6.18;1.50;;;17.20;97.00;;;;;;5036166;28;20045;-80
2023/08/17 06:31:35;;;;;;;5.07;1.55;;;17.20;97.10;;;;;;5035756;28;20033;-80
2023/08/17 06:34:01;;;;;;;6.80;1.40;;;17.20;97.10;;;;;;5035069;28;20048;-80
2023/08/17 06:36:30;;;;;;;6.28;1.23;;;17.20;97.10;;;;;;5035647;28;20049;-79
2023/08/17 06:38:56;;;;;;;4.38;1.20;;;17.30;97.00;;;;;;5035927;28;20041;-80
2023/08/17 06:41:22;;;;;;;4.90;1.60;;;17.30;97.10;;;;;;5036052;28;20045;-80
2023/08/17 06:43:47;;;;;;;5.32;1.55;;;17.30;97.40;;;;;;5037186;28;20573;-80
2023/08/17 06:46:13;;;;;;;3.90;1.30;;;17.30;97.20;;;;;;5050656;28;20132;-80
2023/08/17 06:48:38;;;;;;;6.35;1.58;;;17.30;97.10;;;;;;5034713;28;20395;-79
2023/08/17 06:51:05;;;;;;;6.80;1.52;;;17.30;97.20;;;;;;5044837;28;20487;-80
2023/08/17 06:53:33;;;;;;;5.22;1.50;;;17.40;97.20;;;;;;5050532;28;20119;-79
2023/08/17 06:56:02;;;;;;;5.85;1.40;;;17.40;97.20;;;;;;5035241;28;20502;-80
2023/08/17 06:58:28;;;;;;;5.82;1.38;;;17.40;97.30;;;;;;5018084;28;20152;-80
2023/08/17 07:00:56;;;;;;;4.60;1.58;;;17.40;97.30;;;;;;5034120;28;20068;-80
2023/08/17 07:03:22;;;;;;;5.72;1.45;;;17.40;97.30;;;;;;5035469;28;20050;-80
2023/08/17 07:05:48;;;;;;;3.30;1.10;;;17.40;97.30;;;;;;5034947;28;20045;-80
2023/08/17 07:08:13;;;;;;;5.20;1.60;;;17.50;97.30;;;;;;5036485;28;20060;-80
2023/08/17 07:10:39;;;;;;;6.38;1.50;;;17.50;97.40;;;;;;5034128;28;20103;-80
2023/08/17 07:13:05;;;;;;;5.25;1.30;;;17.50;97.30;;;;;;5035240;28;20045;-79
2023/08/17 07:15:31;;;;;;;4.22;1.40;;;17.50;97.30;;;;;;5035063;28;20037;-80
2023/08/17 07:17:57;;;;;;;4.35;1.27;;;17.50;97.30;;;;;;5044328;28;20048;-77
2023/08/17 07:20:22;;;;;;;5.55;1.30;;;17.60;97.40;;;;;;5041472;28;20525;-79
2023/08/17 07:22:48;;;;;;;4.65;1.25;;;17.60;97.40;;;;;;5033098;28;20041;-80
2023/08/17 07:25:14;;;;;;;5.93;1.70;;;17.60;97.40;;;;;;5035924;28;20048;-81
2023/08/17 07:27:40;;;;;;;3.85;1.00;;;17.70;97.30;;;;;;5035115;28;20041;-80
2023/08/17 07:30:06;;;;;;;4.05;1.27;;;17.70;97.30;;;;;;5034340;28;20061;-80
2023/08/17 07:32:34;;;;;;;6.65;1.60;;;17.70;97.20;;;;;;5034316;28;20060;-80
2023/08/17 07:35:00;;;;;;;6.25;1.42;;;17.70;97.20;;;;;;5036242;28;20305;-79
2023/08/17 07:37:32;;;;;;;5.65;1.30;;;17.80;97.10;;;;;;5046351;28;20495;-80
2023/08/17 07:39:58;;;;;;;6.03;1.25;;;17.80;97.10;;;;;;5034371;28;20045;-80
2023/08/17 07:42:24;;;;;;;5.47;1.40;;;17.80;97.00;;;;;;5034360;28;20042;-80
2023/08/17 07:44:49;;;;;;;5.88;1.48;;;17.80;96.90;;;;;;5039651;28;20399;-80
2023/08/17 07:47:15;;;;;;;4.68;1.23;;;17.80;96.80;;;;;;5034781;28;20045;-80
2023/08/17 07:49:41;;;;;;;6.18;1.20;;;17.80;96.80;;;;;;5049914;28;20407;-80
2023/08/17 07:52:06;;;;;;;4.20;1.00;;;17.80;96.70;;;;;;5034139;28;20128;-80
2023/08/17 07:54:32;;;;;;;4.40;1.10;;;17.90;96.80;;;;;;5034346;28;20075;-79
2023/08/17 07:56:58;;;;;;;4.13;1.25;;;17.90;96.80;;;;;;5034684;28;20041;-80
2023/08/17 07:59:23;;;;;;;4.68;1.15;;;17.90;96.80;;;;;;5034329;28;20065;-80
2023/08/17 08:01:49;;;;;;;4.57;1.45;;;17.90;96.80;;;;;;5033906;28;20068;-80
2023/08/17 08:04:14;;;;;;;6.18;1.23;;;17.90;96.70;;;;;;5033934;28;20049;-80
2023/08/17 08:06:40;;;;;;;5.43;1.20;;;17.90;96.60;;;;;;5035360;28;20041;-80
2023/08/17 08:09:06;;;;;;;5.50;1.15;;;17.90;96.60;;;;;;5045072;28;20510;-80
2023/08/17 08:11:32;;;;;;;3.88;0.95;;;17.90;96.70;;;;;;5032854;28;20087;-80
2023/08/17 08:13:58;;;;;;;3.60;1.00;;;17.90;96.70;;;;;;5035211;28;20041;-80
2023/08/17 08:16:23;;;;;;;4.57;1.02;;;18.00;96.70;;;;;;5036577;28;20532;-80
2023/08/17 08:18:49;;;;;;;5.50;1.10;;;18.00;96.70;;;;;;5032294;28;20046;-80
2023/08/17 08:21:14;;;;;;;4.80;1.10;;;18.00;96.60;;;;;;5036752;28;20454;-80
2023/08/17 08:23:40;;;;;;;3.08;0.82;;;18.10;96.60;;;;;;5034423;28;20042;-80
2023/08/17 08:26:06;;;;;;;5.15;1.10;;;18.10;96.60;;;;;;5034122;28;20052;-79
2023/08/17 08:28:31;;;;;;;3.63;1.00;;;18.10;96.60;;;;;;5034087;28;20046;-80
2023/08/17 08:31:02;;;;;;;4.47;1.20;;;18.10;96.60;;;;;;5031787;28;20049;-80
2023/08/17 08:33:28;;;;;;;3.03;0.90;;;18.20;96.60;;;;;;5032350;28;20048;-80
2023/08/17 08:35:53;;;;;;;4.03;1.00;;;18.30;96.70;;;;;;5033141;28;20037;-81
2023/08/17 08:38:19;;;;;;;4.55;1.30;;;18.30;96.70;;;;;;5034179;28;20115;-80
2023/08/17 08:40:47;;;;;;;4.03;0.90;;;18.40;96.60;;;;;;5034398;28;20053;-80
2023/08/17 08:43:17;;;;;;;4.18;1.00;;;18.50;96.50;;;;;;5033543;28;20041;-80
2023/08/17 08:45:44;;;;;;;4.70;1.15;;;18.50;96.40;;;;;;5033449;28;20427;-80
2023/08/17 08:48:11;;;;;;;4.40;1.10;;;18.60;96.30;;;;;;5048708;28;20045;-80
2023/08/17 08:50:40;;;;;;;2.80;0.90;;;18.70;96.30;;;;;;5033252;28;20064;-80
2023/08/17 08:53:13;;;;;;;4.43;0.90;;;18.80;96.20;;;;;;5033015;28;20076;-80
2023/08/17 08:55:47;;;;;;;4.78;1.17;;;18.80;96.10;;;;;;5034683;28;20361;-80
2023/08/17 08:58:15;;;;;;;3.17;0.93;;;18.90;96.10;;;;;;5032999;28;20064;-80
2023/08/17 09:00:41;;;;;;;4.40;0.93;;;19.00;96.00;;;;;;5031040;28;20065;-80
2023/08/17 09:03:08;;;;;;;5.25;0.93;;;19.00;96.00;;;;;;5033337;28;20057;-80
2023/08/17 09:05:35;;;;;;;4.38;0.90;;;19.10;95.90;;;;;;5033691;28;20053;-80
2023/08/17 09:08:02;;;;;;;5.22;0.80;;;19.10;95.90;;;;;;5033335;28;20046;-80
2023/08/17 09:10:28;;;;;;;2.80;0.80;;;19.20;95.80;;;;;;5033147;28;20060;-80
2023/08/17 09:12:54;;;;;;;4.07;0.90;;;19.20;95.80;;;;;;5036326;28;20095;-80
2023/08/17 09:15:19;;;;;;;2.78;0.80;;;19.30;95.70;;;;;;5031322;28;20045;-80
2023/08/17 09:17:47;;;;;;;3.35;1.00;;;19.30;95.70;;;;;;5031965;28;20503;-80
2023/08/17 09:20:39;;;;;;;4.03;1.05;;;19.40;95.70;;;;;;5032947;28;20531;-80
2023/08/17 09:23:09;;;;;;;3.28;1.13;;;19.40;95.40;;;;;;5048597;28;20400;-80
2023/08/17 09:25:34;;;;;;;6.07;1.10;;;19.40;95.60;;;;;;5032953;28;20049;-80
2023/08/17 09:28:09;;;;;;;3.67;0.93;;;19.50;95.70;;;;;;5048569;28;20484;-80
2023/08/17 09:30:52;;;;;;;4.57;1.00;;;19.50;95.80;;;;;;5033222;28;20068;-80
2023/08/17 09:33:26;;;;;;;4.90;1.08;;;19.50;95.60;;;;;;5033061;28;20491;-80
2023/08/17 09:35:53;;;;;;;4.85;1.13;;;19.50;95.60;;;;;;5031983;28;20121;-80
2023/08/17 09:38:19;;;;;;;3.05;0.90;;;19.60;95.50;;;;;;5032745;28;20086;-80
2023/08/17 09:40:46;;;;;;;3.40;0.90;;;19.60;95.60;;;;;;5032628;28;20533;-80
2023/08/17 09:43:13;;;;;;;4.38;1.10;;;19.60;95.70;;;;;;5044619;28;20227;-80
2023/08/17 09:45:39;;;;;;;3.80;0.90;;;19.70;95.50;;;;;;5033085;28;20059;-80
2023/08/17 09:48:11;;;;;;;4.28;1.00;;;19.70;95.50;;;;;;5048458;28;20050;-80
2023/08/17 09:50:36;;;;;;;2.50;0.80;;;19.70;95.60;;;;;;5037017;28;20128;-80
2023/08/17 09:53:03;;;;;;;6.50;1.10;;;19.70;95.60;;;;;;5037239;28;20567;-80
2023/08/17 09:55:34;;;;;;;3.08;0.90;;;19.80;95.60;;;;;;5052584;28;20132;-80
2023/08/17 09:58:00;;;;;;;3.50;0.80;;;19.80;95.50;;;;;;5037164;28;20107;-79
2023/08/17 10:00:27;;;;;;;4.00;1.17;;;19.90;95.60;;;;;;5036593;28;20053;-79
2023/08/17 10:02:53;;;;;;;5.63;1.13;;;19.90;95.70;;;;;;5016485;28;20060;-79
2023/08/17 10:05:22;;;;;;;5.55;1.00;;;20.00;95.60;;;;;;5032079;28;20045;-79
2023/08/17 10:07:53;;;;;;;3.38;0.90;;;20.00;95.60;;;;;;5029900;28;20038;-79
2023/08/17 10:10:26;;;;;;;6.65;1.10;;;20.00;95.50;;;;;;5024383;28;20511;-80
2023/08/17 10:13:04;;;;;;;3.17;0.93;;;20.10;95.40;;;;;;5020762;28;20049;-80
2023/08/17 10:15:32;;;;;;;5.40;0.98;;;20.10;95.40;;;;;;5023826;28;20049;-80
2023/08/17 10:18:16;;;;;;;3.53;1.02;;;20.20;95.40;;;;;;5017174;28;20503;-80
2023/08/17 10:20:48;;;;;;;4.57;1.10;;;20.20;95.70;;;;;;5045728;28;20102;-79
2023/08/17 10:23:21;;;;;;;2.92;0.93;;;20.30;95.20;;;;;;5038554;28;20468;-81
2023/08/17 10:25:49;;;;;;;3.90;1.13;;;20.30;95.10;;;;;;5039674;28;20446;-80
2023/08/17 10:28:16;;;;;;;2.85;0.80;;;20.30;95.00;;;;;;5031430;28;20419;-80
2023/08/17 10:30:45;;;;;;;4.10;1.20;;;20.40;95.10;;;;;;5016390;28;20037;-80
2023/08/17 10:33:11;;;;;;;4.82;1.17;;;20.40;95.20;;;;;;5030134;28;20049;-80
2023/08/17 10:35:39;;;;;;;2.97;0.80;;;20.40;95.10;;;;;;5016240;28;20107;-80
2023/08/17 10:38:05;;;;;;;5.28;1.20;;;20.50;95.20;;;;;;5032427;28;20095;-80
2023/08/17 10:40:39;;;;;;;2.20;0.82;;;20.50;95.20;;;;;;5029238;28;20492;-80
2023/08/17 10:43:08;;;;;;;7.82;1.40;;;20.50;95.10;;;;;;5029591;28;20049;-79
2023/08/17 10:45:36;;;;;;;3.50;1.00;;;20.60;94.90;;;;;;5042502;28;20050;-80
2023/08/17 10:48:08;;;;;;;2.67;0.98;;;20.60;95.00;;;;;;5036082;28;20515;-80
2023/08/17 10:50:35;;;;;;;2.88;0.90;;;20.60;95.10;;;;;;5029877;28;20053;-81
2023/08/17 10:53:09;;;;;;;4.57;1.10;;;20.60;95.20;;;;;;5031375;28;20038;-81
2023/08/17 10:55:40;;;;;;;5.05;0.90;;;20.70;95.00;;;;;;5034797;28;20391;-81
2023/08/17 10:58:10;;;;;;;5.70;1.30;;;20.70;95.00;;;;;;5039442;28;20053;-81
2023/08/17 11:00:37;;;;;;;3.60;1.02;;;20.70;95.00;;;;;;5035001;28;20057;-80
2023/08/17 11:03:18;;;;;;;5.15;1.13;;;20.80;95.10;;;;;;5024092;28;20072;-81
2023/08/17 11:05:44;;;;;;;3.95;1.20;;;20.80;94.90;;;;;;5033651;28;20037;-81
2023/08/17 11:08:13;;;;;;;5.32;1.20;;;20.80;95.00;;;;;;5024954;28;20046;-81
2023/08/17 11:10:39;;;;;;;5.43;1.20;;;20.80;95.00;;;;;;5032318;28;20140;-81
2023/08/17 11:13:06;;;;;;;4.13;1.38;;;20.80;94.80;;;;;;5043308;28;20052;-81
2023/08/17 11:15:50;;;;;;;5.60;1.20;;;20.80;94.80;;;;;;5037181;28;20124;-80
2023/08/17 11:18:19;;;;;;;6.75;1.35;;;20.90;94.80;;;;;;5023860;28;20045;-80
2023/08/17 11:20:45;;;;;;;6.20;1.40;;;20.90;95.10;;;;;;5033195;28;20049;-81
2023/08/17 11:23:11;;;;;;;4.65;1.00;;;21.00;95.20;;;;;;5032922;28;20068;-81
2023/08/17 11:25:37;;;;;;;5.72;1.50;;;21.00;95.50;;;;;;5026338;28;20045;-80
2023/08/17 11:28:08;;;;;;;5.10;1.40;;;21.00;94.90;;;;;;5024421;28;20049;-81
2023/08/17 11:30:38;;;;;;;4.75;1.17;;;21.10;94.90;;;;;;5033038;28;20045;-81
2023/08/17 11:33:05;;;;;;;3.75;1.10;;;21.10;95.10;;;;;;5033797;28;20041;-81
2023/08/17 11:35:31;;;;;;;4.97;1.20;;;21.10;95.20;;;;;;5034447;28;20042;-80
2023/08/17 11:37:57;;;;;;;4.28;1.25;;;21.20;95.00;;;;;;5034690;28;20496;-81
2023/08/17 11:40:24;;;;;;;5.65;1.20;;;21.20;95.10;;;;;;5035196;28;20083;-81
2023/08/17 11:42:53;;;;;;;3.53;1.20;;;21.20;95.10;;;;;;5035039;28;20045;-81
2023/08/17 11:45:19;;;;;;;3.75;1.33;;;21.30;95.20;;;;;;5034691;28;20041;-81
2023/08/17 11:47:47;;;;;;;3.22;1.10;;;21.30;95.10;;;;;;5033794;28;20502;-81
2023/08/17 11:50:14;;;;;;;4.90;1.33;;;21.40;95.10;;;;;;5034891;28;20168;-80
2023/08/17 11:52:40;;;;;;;3.95;1.33;;;21.40;95.10;;;;;;5034852;28;20458;-80
2023/08/17 11:55:09;;;;;;;4.80;1.40;;;21.40;94.80;;;;;;5017029;28;20049;-80
2023/08/17 11:57:36;;;;;;;5.07;1.48;;;21.40;94.90;;;;;;5034410;28;20462;-80
2023/08/17 12:00:06;;;;;;;6.60;1.40;;;21.50;95.00;;;;;;5034674;28;20137;-81
2023/08/17 12:02:33;;;;;;;3.75;1.25;;;21.50;94.90;;;;;;5034781;28;20079;-81
2023/08/17 12:05:06;;;;;;;3.95;1.50;;;21.50;94.90;;;;;;5034405;28;20446;-80
2023/08/17 12:07:32;;;;;;;5.70;1.40;;;21.50;95.10;;;;;;5034429;28;20041;-81
2023/08/17 12:10:01;;;;;;;4.25;1.27;;;21.60;95.00;;;;;;5033895;28;20045;-81
2023/08/17 12:12:31;;;;;;;3.65;1.00;;;21.70;95.10;;;;;;5034201;28;20045;-81
2023/08/17 12:14:57;;;;;;;3.08;1.10;;;21.70;95.10;;;;;;5034355;28;20487;-82
2023/08/17 12:17:23;;;;;;;7.38;1.67;;;21.70;95.10;;;;;;5034377;28;20052;-81
2023/08/17 12:19:50;;;;;;;4.35;1.38;;;21.70;94.90;;;;;;5034446;28;20041;-81
2023/08/17 12:22:17;;;;;;;4.13;1.20;;;21.80;95.00;;;;;;5034304;28;20080;-81
2023/08/17 12:24:43;;;;;;;4.97;1.75;;;21.80;95.00;;;;;;5034068;28;20091;-81
2023/08/17 12:27:13;;;;;;;4.28;1.35;;;21.90;94.30;;;;;;5034271;28;20049;-81
2023/08/17 12:29:52;;;;;;;4.68;1.30;;;21.90;94.40;;;;;;5034262;28;20053;-81
2023/08/17 12:32:21;;;;;;;3.13;1.30;;;21.90;94.70;;;;;;5034181;28;20092;-81
2023/08/17 12:34:50;;;;;;;3.60;1.17;;;21.90;94.80;;;;;;5034030;28;20086;-80
2023/08/17 12:37:23;;;;;;;5.25;1.30;;;21.90;94.80;;;;;;5033813;28;20056;-81
2023/08/17 12:39:48;;;;;;;5.57;1.80;;;22.00;94.90;;;;;;5033847;28;20041;-81
2023/08/17 12:42:18;;;;;;;5.10;1.45;;;22.00;94.90;;;;;;5033758;28;20045;-81
2023/08/17 12:44:46;;;;;;;4.05;1.40;;;22.00;94.70;;;;;;5033913;28;20045;-81
2023/08/17 12:47:12;;;;;;;4.43;1.30;;;22.00;94.50;;;;;;5033744;28;20504;-81